createdAt,value
2022-12-11T00:00:53.907Z,90.39
2022-12-11T00:03:40.825Z,90.56
2022-12-11T00:06:11.056Z,90.56
2022-12-11T00:08:39.278Z,90.51
2022-12-11T00:11:13.178Z,90.52
2022-12-11T00:13:40.950Z,90.65
2022-12-11T00:16:09.718Z,90.76
2022-12-11T00:18:37.765Z,90.78
2022-12-11T00:21:07.626Z,91.02
2022-12-11T00:23:36.747Z,91.08
2022-12-11T00:26:10.573Z,91.05
2022-12-11T00:28:38.494Z,91.25
2022-12-11T00:31:07.916Z,91.31
2022-12-11T00:33:35.521Z,91.30
2022-12-11T00:36:03.568Z,91.37
2022-12-11T00:38:31.171Z,91.43
2022-12-11T00:40:59.783Z,91.44
2022-12-11T00:43:27.355Z,91.37
2022-12-11T00:45:55.023Z,91.32
2022-12-11T00:48:22.825Z,91.43
2022-12-11T00:50:50.410Z,91.41
2022-12-11T00:53:18.124Z,91.40
2022-12-11T00:55:45.740Z,91.39
2022-12-11T00:58:13.760Z,91.29
2022-12-11T01:00:42.584Z,91.45
2022-12-11T01:03:13.092Z,91.39
2022-12-11T01:05:40.928Z,91.39
2022-12-11T01:08:08.639Z,91.23
2022-12-11T01:10:36.308Z,91.20
2022-12-11T01:13:06.950Z,91.15
2022-12-11T01:15:41.834Z,91.11
2022-12-11T01:18:12.032Z,90.88
2022-12-11T01:20:40.700Z,90.82
2022-12-11T01:23:10.140Z,90.75
2022-12-11T01:25:37.719Z,90.74
2022-12-11T01:28:06.267Z,90.59
2022-12-11T01:30:34.455Z,90.69
2022-12-11T01:33:02.561Z,90.49
2022-12-11T01:35:30.187Z,90.46
2022-12-11T01:37:57.780Z,90.47
2022-12-11T01:40:25.353Z,90.23
2022-12-11T01:42:52.980Z,90.02
2022-12-11T01:45:36.071Z,89.85
2022-12-11T01:48:06.209Z,90.00
2022-12-11T01:50:39.552Z,89.94
2022-12-11T01:53:10.404Z,89.98
2022-12-11T01:55:39.482Z,89.87
2022-12-11T01:58:08.671Z,89.68
2022-12-11T02:00:36.321Z,89.63
2022-12-11T02:03:04.276Z,89.70
2022-12-11T02:05:32.007Z,89.57
2022-12-11T02:08:02.963Z,89.51
2022-12-11T02:10:56.267Z,89.45
2022-12-11T02:13:43.871Z,88.98
2022-12-11T02:16:21.355Z,88.93
2022-12-11T02:18:58.751Z,88.94
2022-12-11T02:21:40.247Z,88.61
2022-12-11T02:24:25.800Z,88.62
2022-12-11T02:27:21.324Z,88.84
2022-12-11T02:29:54.586Z,88.67
2022-12-11T02:32:32.112Z,88.36
2022-12-11T02:35:11.863Z,88.26
2022-12-11T02:37:43.769Z,88.23
2022-12-11T02:40:14.426Z,88.21
2022-12-11T02:42:44.023Z,88.14
2022-12-11T02:45:13.553Z,88.21
2022-12-11T02:47:44.134Z,88.40
2022-12-11T02:50:15.776Z,88.15
2022-12-11T02:52:44.896Z,88.02
2022-12-11T02:55:15.545Z,87.80
2022-12-11T02:57:47.728Z,88.00
2022-12-11T03:00:15.574Z,88.25
2022-12-11T03:02:43.745Z,88.18
2022-12-11T03:05:13.532Z,88.21
2022-12-11T03:07:44.287Z,88.61
2022-12-11T03:10:15.489Z,88.48
2022-12-11T03:12:51.808Z,88.46
2022-12-11T03:15:26.341Z,88.40
2022-12-11T03:18:12.427Z,88.16
2022-12-11T03:20:44.152Z,88.35
2022-12-11T03:23:14.628Z,88.62
2022-12-11T03:25:56.904Z,88.60
2022-12-11T03:28:34.300Z,88.79
2022-12-11T03:31:09.070Z,88.71
2022-12-11T03:33:41.778Z,88.49
2022-12-11T03:36:17.626Z,88.81
2022-12-11T03:38:53.755Z,88.95
2022-12-11T03:41:25.891Z,88.97
2022-12-11T03:43:58.680Z,89.11
2022-12-11T03:46:38.439Z,89.06
2022-12-11T03:49:14.546Z,88.90
2022-12-11T03:51:45.078Z,89.02
2022-12-11T03:54:13.055Z,88.99
2022-12-11T03:56:43.160Z,89.02
2022-12-11T03:59:10.993Z,88.92
2022-12-11T04:01:38.999Z,88.67
2022-12-11T04:04:06.718Z,88.77
2022-12-11T04:06:34.357Z,88.88
2022-12-11T04:09:02.153Z,88.85
2022-12-11T04:11:29.836Z,88.97
2022-12-11T04:13:57.461Z,89.06
2022-12-11T04:16:25.033Z,89.10
2022-12-11T04:18:52.620Z,88.93
2022-12-11T04:21:20.204Z,88.85
2022-12-11T04:23:47.809Z,88.79
2022-12-11T04:26:20.510Z,88.68
2022-12-11T04:28:49.606Z,88.69
2022-12-11T04:31:22.269Z,88.86
2022-12-11T04:33:50.210Z,88.53
2022-12-11T04:36:18.040Z,88.38
2022-12-11T04:38:45.637Z,88.47
2022-12-11T04:41:15.735Z,88.45
2022-12-11T04:43:43.915Z,88.47
2022-12-11T04:46:17.692Z,88.23
2022-12-11T04:48:45.774Z,88.22
2022-12-11T04:51:13.860Z,88.04
2022-12-11T04:53:41.615Z,87.75
2022-12-11T04:56:10.946Z,87.98
2022-12-11T04:58:39.298Z,88.14
2022-12-11T05:01:11.941Z,88.17
2022-12-11T05:03:39.855Z,88.18
2022-12-11T05:06:08.852Z,88.23
2022-12-11T05:08:37.950Z,88.32
2022-12-11T05:11:10.232Z,88.43
2022-12-11T05:13:37.955Z,88.23
2022-12-11T05:16:07.492Z,88.24
2022-12-11T05:18:35.814Z,88.14
2022-12-11T05:21:10.494Z,88.24
2022-12-11T05:23:38.616Z,88.13
2022-12-11T05:26:14.091Z,87.92
2022-12-11T05:28:41.729Z,87.63
2022-12-11T05:31:14.605Z,87.84
2022-12-11T05:33:43.061Z,87.87
2022-12-11T05:36:17.039Z,87.98
2022-12-11T05:38:45.375Z,87.94
2022-12-11T05:41:15.802Z,87.30
2022-12-11T05:43:43.930Z,87.36
2022-12-11T05:46:14.618Z,87.55
2022-12-11T05:48:43.651Z,87.38
2022-12-11T05:51:12.025Z,87.36
2022-12-11T05:53:41.103Z,87.51
2022-12-11T05:56:13.508Z,87.16
2022-12-11T05:58:42.327Z,87.23
2022-12-11T06:01:13.074Z,87.31
2022-12-11T06:03:41.087Z,87.17
2022-12-11T06:06:08.688Z,87.05
2022-12-11T06:08:36.357Z,86.92
2022-12-11T06:11:05.188Z,86.70
2022-12-11T06:13:33.141Z,86.78
2022-12-11T06:16:05.468Z,86.56
2022-12-11T06:18:36.817Z,86.67
2022-12-11T06:21:28.414Z,86.69
2022-12-11T06:23:57.702Z,86.45
2022-12-11T06:26:26.808Z,86.14
2022-12-11T06:28:54.396Z,86.11
2022-12-11T06:31:22.072Z,86.00
2022-12-11T06:33:49.727Z,85.61
2022-12-11T06:36:19.555Z,85.79
2022-12-11T06:38:47.348Z,85.78
2022-12-11T06:41:15.475Z,85.93
2022-12-11T06:43:43.301Z,85.78
2022-12-11T06:46:14.236Z,85.37
2022-12-11T06:48:42.993Z,84.93
2022-12-11T06:51:16.679Z,84.73
2022-12-11T06:53:44.580Z,84.57
2022-12-11T06:56:14.357Z,84.41
2022-12-11T06:58:43.220Z,84.13
2022-12-11T07:01:26.398Z,83.88
2022-12-11T07:03:55.628Z,83.97
2022-12-11T07:06:24.403Z,84.09
2022-12-11T07:08:52.291Z,84.08
2022-12-11T07:11:21.256Z,83.79
2022-12-11T07:13:48.904Z,84.17
2022-12-11T07:16:17.685Z,84.30
2022-12-11T07:18:50.230Z,83.59
2022-12-11T07:21:19.358Z,83.27
2022-12-11T07:23:48.520Z,82.88
2022-12-11T07:26:19.481Z,83.16
2022-12-11T07:28:47.104Z,83.52
2022-12-11T07:31:18.172Z,83.78
2022-12-11T07:33:45.876Z,83.49
2022-12-11T07:36:15.279Z,83.32
2022-12-11T07:38:43.033Z,83.13
2022-12-11T07:41:12.759Z,82.66
2022-12-11T07:43:40.928Z,82.36
2022-12-11T07:46:20.709Z,82.47
2022-12-11T07:48:49.561Z,82.21
2022-12-11T07:51:22.222Z,82.57
2022-12-11T07:53:50.313Z,81.98
2022-12-11T07:56:18.885Z,82.17
2022-12-11T07:58:46.938Z,81.55
2022-12-11T08:01:26.132Z,81.72
2022-12-11T08:03:54.928Z,81.72
2022-12-11T08:06:28.613Z,81.20
2022-12-11T08:08:57.949Z,81.31
2022-12-11T08:11:26.519Z,81.42
2022-12-11T08:13:54.975Z,80.91
2022-12-11T08:16:23.233Z,80.35
2022-12-11T08:18:51.422Z,80.09
2022-12-11T08:21:20.594Z,79.56
2022-12-11T08:23:49.024Z,79.87
2022-12-11T08:26:22.776Z,80.09
2022-12-11T08:28:50.436Z,80.45
2022-12-11T08:31:19.341Z,80.15
2022-12-11T08:33:47.976Z,79.74
2022-12-11T08:36:18.680Z,79.72
2022-12-11T08:38:47.130Z,79.53
2022-12-11T08:41:16.124Z,79.10
2022-12-11T08:43:44.580Z,79.15
2022-12-11T08:46:13.524Z,79.14
2022-12-11T08:48:42.680Z,79.28
2022-12-11T08:51:16.015Z,79.20
2022-12-11T08:53:43.870Z,78.00
2022-12-11T08:56:14.116Z,78.14
2022-12-11T08:58:42.714Z,78.41
2022-12-11T09:01:25.888Z,78.72
2022-12-11T09:03:55.115Z,78.42
2022-12-11T09:06:25.276Z,78.47
2022-12-11T09:08:54.353Z,77.72
2022-12-11T09:11:24.923Z,77.67
2022-12-11T09:13:53.469Z,77.19
2022-12-11T09:16:23.929Z,76.92
2022-12-11T09:18:53.830Z,77.34
2022-12-11T09:21:24.516Z,77.41
2022-12-11T09:23:57.084Z,77.90
2022-12-11T09:26:25.472Z,77.12
2022-12-11T09:28:53.374Z,77.54
2022-12-11T09:31:25.221Z,77.59
2022-12-11T09:33:56.964Z,77.46
2022-12-11T09:36:25.311Z,77.21
2022-12-11T09:38:53.322Z,76.84
2022-12-11T09:41:20.816Z,77.23
2022-12-11T09:44:16.528Z,77.13
2022-12-11T09:46:46.215Z,77.27
2022-12-11T09:49:41.275Z,76.56
2022-12-11T09:52:15.463Z,76.12
2022-12-11T09:54:57.252Z,76.46
2022-12-11T09:57:33.771Z,76.54
2022-12-11T10:00:17.999Z,76.14
2022-12-11T10:03:09.367Z,75.71
2022-12-11T10:05:46.113Z,76.10
2022-12-11T10:08:16.574Z,76.04
2022-12-11T10:10:53.605Z,75.53
2022-12-11T10:13:33.325Z,75.63
2022-12-11T10:16:13.096Z,75.22
2022-12-11T10:18:41.795Z,75.00
2022-12-11T10:21:10.527Z,75.16
2022-12-11T10:23:53.630Z,75.10
2022-12-11T10:26:23.292Z,75.52
2022-12-11T10:28:51.033Z,75.41
2022-12-11T10:31:34.193Z,75.96
2022-12-11T10:34:13.471Z,75.98
2022-12-11T10:36:42.799Z,75.52
2022-12-11T10:39:16.450Z,74.89
2022-12-11T10:41:47.016Z,74.76
2022-12-11T10:44:31.553Z,74.72
2022-12-11T10:47:06.605Z,75.04
2022-12-11T10:49:36.477Z,74.27
2022-12-11T10:52:21.971Z,74.62
2022-12-11T10:54:58.524Z,74.76
2022-12-11T10:57:33.814Z,75.09
2022-12-11T11:00:02.960Z,74.44
2022-12-11T11:02:34.135Z,74.77
2022-12-11T11:05:15.711Z,74.98
2022-12-11T11:07:43.699Z,74.62
2022-12-11T11:10:11.294Z,75.03
2022-12-11T11:12:41.947Z,74.98
2022-12-11T11:15:18.002Z,75.07
2022-12-11T11:17:56.040Z,75.65
2022-12-11T11:20:27.308Z,75.22
2022-12-11T11:23:01.524Z,75.33
2022-12-11T11:25:32.791Z,75.37
2022-12-11T11:28:03.603Z,75.27
2022-12-11T11:30:35.695Z,75.24
2022-12-11T11:33:15.781Z,75.04
2022-12-11T11:35:57.332Z,74.90
2022-12-11T11:38:42.664Z,74.29
2022-12-11T11:41:28.088Z,74.23
2022-12-11T11:44:04.129Z,74.26
2022-12-11T11:46:44.405Z,74.18
2022-12-11T11:49:33.325Z,74.23
2022-12-11T11:52:08.636Z,73.90
2022-12-11T11:54:40.965Z,74.28
2022-12-11T11:57:27.281Z,74.97
2022-12-11T12:00:00.073Z,74.07
2022-12-11T12:02:28.032Z,74.17
2022-12-11T12:04:56.135Z,73.78
2022-12-11T12:07:35.670Z,74.44
2022-12-11T12:10:26.238Z,74.43
2022-12-11T12:12:57.690Z,74.11
2022-12-11T12:15:34.317Z,73.75
2022-12-11T12:18:06.500Z,73.38
2022-12-11T12:20:48.256Z,73.74
2022-12-11T12:23:37.689Z,74.18
2022-12-11T12:26:28.701Z,74.08
2022-12-11T12:29:21.377Z,74.81
2022-12-11T12:32:20.335Z,74.39
2022-12-11T12:35:03.149Z,74.66
2022-12-11T12:38:05.381Z,73.87
2022-12-11T12:40:36.454Z,74.57
2022-12-11T12:43:31.936Z,74.33
2022-12-11T12:46:24.312Z,74.27
2022-12-11T12:48:55.298Z,74.15
2022-12-11T12:51:23.430Z,73.63
2022-12-11T12:54:06.687Z,73.78
2022-12-11T12:56:40.489Z,74.12
2022-12-11T12:59:23.329Z,73.97
2022-12-11T13:01:57.118Z,74.45
2022-12-11T13:07:30.702Z,72.78
2022-12-11T13:10:04.784Z,73.14
2022-12-11T13:12:41.278Z,73.49
2022-12-11T13:15:29.379Z,73.44
2022-12-11T13:17:58.893Z,73.77
2022-12-11T13:20:32.440Z,73.36
2022-12-11T13:23:06.522Z,73.75
2022-12-11T13:25:48.086Z,74.05
2022-12-11T13:28:46.412Z,73.52
2022-12-11T13:31:13.991Z,72.30
2022-12-11T13:33:45.820Z,72.86
2022-12-11T13:36:17.913Z,73.55
2022-12-11T13:38:52.191Z,73.37
2022-12-11T13:41:20.238Z,73.35
2022-12-11T13:43:50.494Z,73.02
2022-12-11T13:46:30.893Z,72.82
2022-12-11T13:49:02.244Z,72.84
2022-12-11T13:51:32.742Z,73.09
2022-12-11T13:54:16.665Z,72.72
2022-12-11T13:57:00.483Z,73.09
2022-12-11T13:59:38.409Z,73.18
2022-12-11T14:02:18.050Z,73.37
2022-12-11T14:04:47.792Z,73.16
2022-12-11T14:07:20.680Z,72.49
2022-12-11T14:09:48.399Z,72.67
2022-12-11T14:12:21.712Z,72.73
2022-12-11T14:14:53.649Z,72.88
2022-12-11T14:17:28.295Z,72.10
2022-12-11T14:19:59.229Z,71.83
2022-12-11T14:22:28.944Z,72.61
2022-12-11T14:24:59.971Z,72.62
2022-12-11T14:27:27.756Z,72.15
2022-12-11T14:29:55.995Z,72.75
2022-12-11T14:32:36.335Z,72.67
2022-12-11T14:35:10.680Z,72.31
2022-12-11T14:37:39.356Z,72.42
2022-12-11T14:40:15.748Z,72.40
2022-12-11T14:42:48.357Z,72.71
2022-12-11T14:45:24.511Z,72.87
2022-12-11T14:47:53.079Z,72.45
2022-12-11T14:50:26.800Z,72.44
2022-12-11T14:53:02.327Z,72.74
2022-12-11T14:55:33.536Z,73.16
2022-12-11T14:58:17.609Z,72.98
2022-12-11T15:01:03.425Z,73.18
2022-12-11T15:03:32.410Z,73.37
2022-12-11T15:06:01.206Z,73.51
2022-12-11T15:08:34.471Z,73.37
2022-12-11T15:11:09.760Z,73.08
2022-12-11T15:13:47.108Z,73.16
2022-12-11T15:16:15.236Z,73.16
2022-12-11T15:18:43.111Z,73.22
2022-12-11T15:21:12.520Z,73.33
2022-12-11T15:23:55.479Z,73.27
2022-12-11T15:26:40.061Z,73.46
2022-12-11T15:29:27.571Z,73.63
2022-12-11T15:32:19.861Z,73.99
2022-12-11T15:34:48.712Z,73.48
2022-12-11T15:37:36.101Z,73.26
2022-12-11T15:40:05.136Z,73.35
2022-12-11T15:42:36.756Z,73.37
2022-12-11T15:45:08.237Z,73.04
2022-12-11T15:47:35.788Z,72.74
2022-12-11T15:50:12.852Z,72.84
2022-12-11T15:52:40.619Z,72.47
2022-12-11T15:55:08.724Z,72.68
2022-12-11T15:57:37.099Z,72.97
2022-12-11T16:00:05.471Z,72.35
2022-12-11T16:02:33.245Z,71.87
2022-12-11T16:05:00.936Z,72.24
2022-12-11T16:07:28.538Z,71.67
2022-12-11T16:09:56.123Z,72.08
2022-12-11T16:12:23.753Z,72.05
2022-12-11T16:14:51.346Z,72.02
2022-12-11T16:17:18.944Z,72.09
2022-12-11T16:19:46.524Z,71.86
2022-12-11T16:22:14.490Z,71.86
2022-12-11T16:24:42.089Z,71.47
2022-12-11T16:27:09.717Z,71.32
2022-12-11T16:29:39.746Z,71.40
2022-12-11T16:32:08.501Z,71.04
2022-12-11T16:34:37.141Z,70.98
2022-12-11T16:37:06.466Z,71.07
2022-12-11T16:39:34.937Z,71.37
2022-12-11T16:42:03.559Z,71.28
2022-12-11T16:44:31.175Z,71.16
2022-12-11T16:46:59.120Z,71.19
2022-12-11T16:49:26.774Z,70.70
2022-12-11T16:51:54.327Z,70.72
2022-12-11T16:54:21.919Z,70.66
2022-12-11T16:56:49.506Z,70.16
2022-12-11T16:59:17.069Z,70.27
2022-12-11T17:01:44.715Z,70.52
2022-12-11T17:04:12.399Z,70.50
2022-12-11T17:06:40.317Z,70.42
2022-12-11T17:09:08.206Z,70.39
2022-12-11T17:11:35.801Z,70.31
2022-12-11T17:14:03.381Z,70.69
2022-12-11T17:16:30.971Z,70.38
2022-12-11T17:18:58.831Z,70.52
2022-12-11T17:21:26.408Z,70.53
2022-12-11T17:23:54.059Z,70.72
2022-12-11T17:26:21.625Z,70.93
2022-12-11T17:28:49.208Z,70.18
2022-12-11T17:31:18.430Z,70.51
2022-12-11T17:33:47.110Z,70.68
2022-12-11T17:36:16.688Z,70.83
2022-12-11T17:38:44.696Z,70.68
2022-12-11T17:41:20.045Z,70.91
2022-12-11T17:43:52.618Z,70.45
2022-12-11T17:46:21.074Z,70.42
2022-12-11T17:48:48.931Z,70.21
2022-12-11T17:51:18.488Z,69.40
2022-12-11T17:53:46.121Z,69.83
2022-12-11T17:56:13.781Z,70.29
2022-12-11T17:58:41.383Z,69.88
2022-12-11T18:01:10.411Z,70.19
2022-12-11T18:03:38.298Z,70.00
2022-12-11T18:06:09.579Z,70.16
2022-12-11T18:08:37.386Z,69.82
2022-12-11T18:11:11.143Z,70.18
2022-12-11T18:13:38.795Z,70.06
2022-12-11T18:16:13.113Z,69.63
2022-12-11T18:18:40.797Z,69.78
2022-12-11T18:21:08.402Z,69.75
2022-12-11T18:23:36.021Z,70.04
2022-12-11T18:26:03.591Z,69.86
2022-12-11T18:28:31.166Z,70.26
2022-12-11T18:31:02.795Z,70.37
2022-12-11T18:33:30.830Z,70.24
2022-12-11T18:35:58.544Z,70.58
2022-12-11T18:38:26.134Z,70.92
2022-12-11T18:40:53.798Z,71.34
2022-12-11T18:43:21.566Z,70.86
2022-12-11T18:45:49.308Z,70.89
2022-12-11T18:48:16.987Z,71.02
2022-12-11T18:50:46.313Z,70.86
2022-12-11T18:53:14.883Z,70.70
2022-12-11T18:55:47.492Z,70.99
2022-12-11T18:58:19.863Z,71.21
2022-12-11T19:00:47.546Z,71.31
2022-12-11T19:03:15.216Z,71.29
2022-12-11T19:05:43.325Z,71.18
2022-12-11T19:08:12.654Z,71.50
2022-12-11T19:10:46.257Z,71.45
2022-12-11T19:13:14.800Z,71.26
2022-12-11T19:15:45.053Z,71.32
2022-12-11T19:18:12.737Z,71.41
2022-12-11T19:20:48.904Z,71.56
2022-12-11T19:23:17.659Z,71.62
2022-12-11T19:25:47.725Z,71.66
2022-12-11T19:28:15.608Z,71.93
2022-12-11T19:30:46.485Z,71.80
2022-12-11T19:33:14.891Z,72.21
2022-12-11T19:35:43.017Z,72.38
2022-12-11T19:38:11.270Z,72.18
2022-12-11T19:40:43.834Z,72.27
2022-12-11T19:43:11.477Z,72.22
2022-12-11T19:45:39.081Z,72.40
2022-12-11T19:48:06.781Z,72.44
2022-12-11T19:50:37.452Z,72.17
2022-12-11T19:53:05.151Z,72.36
2022-12-11T19:55:32.774Z,72.18
2022-12-11T19:58:00.384Z,72.29
2022-12-11T20:00:28.074Z,72.58
2022-12-11T20:02:55.678Z,72.83
2022-12-11T20:05:23.392Z,72.82
2022-12-11T20:07:52.044Z,72.61
2022-12-11T20:10:19.695Z,72.78
2022-12-11T20:12:47.321Z,73.23
2022-12-11T20:15:15.009Z,73.27
2022-12-11T20:17:42.656Z,73.28
2022-12-11T20:20:11.498Z,73.66
2022-12-11T20:22:39.102Z,75.04
2022-12-11T20:25:06.932Z,76.05
2022-12-11T20:27:34.561Z,76.93
2022-12-11T20:30:02.722Z,77.38
2022-12-11T20:32:30.354Z,77.85
2022-12-11T20:34:58.317Z,78.71
2022-12-11T20:37:25.974Z,79.07
2022-12-11T20:39:53.577Z,79.03
2022-12-11T20:42:21.264Z,78.32
2022-12-11T20:44:49.572Z,78.63
2022-12-11T20:47:18.416Z,79.01
2022-12-11T20:49:47.853Z,78.71
2022-12-11T20:52:15.793Z,78.20
2022-12-11T20:54:43.907Z,77.77
2022-12-11T20:57:12.412Z,77.73
2022-12-11T20:59:40.009Z,77.26
2022-12-11T21:02:07.715Z,76.99
2022-12-11T21:04:41.423Z,76.98
2022-12-11T21:07:10.196Z,76.66
2022-12-11T21:09:38.486Z,76.60
2022-12-11T21:12:06.895Z,76.32
2022-12-11T21:14:34.715Z,76.63
2022-12-11T21:17:02.323Z,78.24
2022-12-11T21:19:29.988Z,79.14
2022-12-11T21:21:57.647Z,79.15
2022-12-11T21:24:27.668Z,79.03
2022-12-11T21:26:57.614Z,79.24
2022-12-11T21:29:27.020Z,79.68
2022-12-11T21:31:55.571Z,80.04
2022-12-11T21:34:25.489Z,79.64
2022-12-11T21:36:54.605Z,79.28
2022-12-11T21:39:23.807Z,79.12
2022-12-11T21:41:51.380Z,79.07
2022-12-11T21:47:06.572Z,80.63
2022-12-11T21:49:34.398Z,81.03
2022-12-11T21:52:01.986Z,81.47
2022-12-11T21:54:29.597Z,81.55
2022-12-11T21:56:57.260Z,81.81
2022-12-11T21:59:24.953Z,81.18
2022-12-11T22:01:52.652Z,82.02
2022-12-11T22:04:20.279Z,82.30
2022-12-11T22:06:48.154Z,83.22
2022-12-11T22:09:16.512Z,83.55
2022-12-11T22:11:45.443Z,82.57
2022-12-11T22:14:13.945Z,82.62
2022-12-11T22:16:42.868Z,81.83
2022-12-11T22:19:11.051Z,81.51
2022-12-11T22:21:38.985Z,80.92
2022-12-11T22:24:06.953Z,80.91
2022-12-11T22:26:34.562Z,80.48
2022-12-11T22:29:02.222Z,81.03
2022-12-11T22:31:29.791Z,81.47
2022-12-11T22:33:57.757Z,82.06
2022-12-11T22:36:27.030Z,82.69
2022-12-11T22:38:54.896Z,83.56
2022-12-11T22:41:26.359Z,84.63
2022-12-11T22:43:55.083Z,85.44
2022-12-11T22:46:26.051Z,85.36
2022-12-11T22:48:53.901Z,85.81
2022-12-11T22:51:21.871Z,85.51
2022-12-11T22:53:49.529Z,84.94
2022-12-11T22:56:17.159Z,85.26
2022-12-11T22:58:44.787Z,84.75
2022-12-11T23:01:16.875Z,84.60
2022-12-11T23:03:45.620Z,84.61
2022-12-11T23:06:16.432Z,84.57
2022-12-11T23:08:44.516Z,84.44
2022-12-11T23:11:12.125Z,84.26
2022-12-11T23:13:40.202Z,83.76
2022-12-11T23:16:07.933Z,83.91
2022-12-11T23:18:35.795Z,83.75
2022-12-11T23:21:04.345Z,84.12
2022-12-11T23:23:32.154Z,84.26
2022-12-11T23:25:59.863Z,84.24
2022-12-11T23:28:27.509Z,83.47
2022-12-11T23:30:55.203Z,83.78
2022-12-11T23:33:22.854Z,83.22
2022-12-11T23:35:50.560Z,83.24
2022-12-11T23:38:18.165Z,83.66
2022-12-11T23:40:45.788Z,83.51
2022-12-11T23:43:13.342Z,82.60
2022-12-11T23:45:43.680Z,82.56
2022-12-11T23:48:12.607Z,83.04
2022-12-11T23:50:41.410Z,82.49
2022-12-11T23:53:09.670Z,81.67
2022-12-11T23:55:41.909Z,81.92
2022-12-11T23:58:09.820Z,81.84
